sensor_id;sensor_type;location;lat;lon;timestamp;P1;durP1;ratioP1;P2;durP2;ratioP2
1569;SDS011;778;50.120;8.698;2023-02-01T00:01:34;6.80;;;4.97;;
1569;SDS011;778;50.120;8.698;2023-02-01T00:04:02;6.00;;;5.40;;
1569;SDS011;778;50.120;8.698;2023-02-01T00:06:33;10.07;;;5.17;;
1569;SDS011;778;50.120;8.698;2023-02-01T00:09:01;5.20;;;4.80;;
1569;SDS011;778;50.120;8.698;2023-02-01T00:11:30;5.00;;;4.60;;
1569;SDS011;778;50.120;8.698;2023-02-01T00:13:58;6.47;;;4.53;;
1569;SDS011;778;50.120;8.698;2023-02-01T00:16:28;4.77;;;4.10;;
1569;SDS011;778;50.120;8.698;2023-02-01T00:18:58;4.77;;;4.20;;
1569;SDS011;778;50.120;8.698;2023-02-01T00:21:29;4.70;;;4.30;;
1569;SDS011;778;50.120;8.698;2023-02-01T00:23:59;4.53;;;4.13;;
1569;SDS011;778;50.120;8.698;2023-02-01T00:26:30;4.80;;;4.27;;
1569;SDS011;778;50.120;8.698;2023-02-01T00:29:01;5.17;;;4.77;;
1569;SDS011;778;50.120;8.698;2023-02-01T00:31:33;5.03;;;4.40;;
1569;SDS011;778;50.120;8.698;2023-02-01T00:34:02;4.20;;;3.90;;
1569;SDS011;778;50.120;8.698;2023-02-01T00:36:31;4.47;;;4.10;;
1569;SDS011;778;50.120;8.698;2023-02-01T00:39:00;5.97;;;4.30;;
1569;SDS011;778;50.120;8.698;2023-02-01T00:41:29;6.10;;;5.50;;
1569;SDS011;778;50.120;8.698;2023-02-01T00:43:57;4.30;;;3.90;;
1569;SDS011;778;50.120;8.698;2023-02-01T00:46:26;6.07;;;4.50;;
1569;SDS011;778;50.120;8.698;2023-02-01T00:48:54;4.43;;;4.03;;
1569;SDS011;778;50.120;8.698;2023-02-01T00:51:24;5.57;;;5.07;;
1569;SDS011;778;50.120;8.698;2023-02-01T00:53:55;5.20;;;4.50;;
1569;SDS011;778;50.120;8.698;2023-02-01T00:56:25;4.73;;;4.33;;
1569;SDS011;778;50.120;8.698;2023-02-01T00:58:54;5.63;;;5.10;;
1569;SDS011;778;50.120;8.698;2023-02-01T01:01:24;4.70;;;4.30;;
1569;SDS011;778;50.120;8.698;2023-02-01T01:03:55;5.70;;;4.90;;
1569;SDS011;778;50.120;8.698;2023-02-01T01:06:26;6.50;;;4.80;;
1569;SDS011;778;50.120;8.698;2023-02-01T01:08:56;4.33;;;4.03;;
1569;SDS011;778;50.120;8.698;2023-02-01T01:11:29;6.10;;;5.50;;
1569;SDS011;778;50.120;8.698;2023-02-01T01:14:00;6.27;;;5.67;;
1569;SDS011;778;50.120;8.698;2023-02-01T01:16:29;3.70;;;3.40;;
1569;SDS011;778;50.120;8.698;2023-02-01T01:18:59;6.00;;;5.50;;
1569;SDS011;778;50.120;8.698;2023-02-01T01:21:28;6.60;;;6.00;;
1569;SDS011;778;50.120;8.698;2023-02-01T01:23:58;6.50;;;5.87;;
1569;SDS011;778;50.120;8.698;2023-02-01T01:26:28;6.50;;;5.90;;
1569;SDS011;778;50.120;8.698;2023-02-01T01:28:58;6.87;;;6.17;;
1569;SDS011;778;50.120;8.698;2023-02-01T01:31:27;7.80;;;7.07;;
1569;SDS011;778;50.120;8.698;2023-02-01T01:33:58;5.87;;;5.30;;
1569;SDS011;778;50.120;8.698;2023-02-01T01:36:28;6.23;;;5.63;;
1569;SDS011;778;50.120;8.698;2023-02-01T01:38:57;5.20;;;4.80;;
1569;SDS011;778;50.120;8.698;2023-02-01T01:41:26;5.40;;;4.90;;
1569;SDS011;778;50.120;8.698;2023-02-01T01:47:29;6.70;;;6.00;;
1569;SDS011;778;50.120;8.698;2023-02-01T01:50:02;6.00;;;5.50;;
1569;SDS011;778;50.120;8.698;2023-02-01T01:52:35;6.17;;;5.57;;
1569;SDS011;778;50.120;8.698;2023-02-01T01:55:07;5.57;;;5.03;;
1569;SDS011;778;50.120;8.698;2023-02-01T01:57:39;6.80;;;5.70;;
1569;SDS011;778;50.120;8.698;2023-02-01T02:00:12;6.70;;;5.70;;
1569;SDS011;778;50.120;8.698;2023-02-01T02:02:44;6.03;;;5.43;;
1569;SDS011;778;50.120;8.698;2023-02-01T02:05:15;6.60;;;6.07;;
1569;SDS011;778;50.120;8.698;2023-02-01T02:07:46;5.87;;;5.27;;
1569;SDS011;778;50.120;8.698;2023-02-01T02:10:19;6.00;;;5.50;;
1569;SDS011;778;50.120;8.698;2023-02-01T02:13:09;7.13;;;5.60;;
1569;SDS011;778;50.120;8.698;2023-02-01T02:15:41;5.67;;;5.17;;
1569;SDS011;778;50.120;8.698;2023-02-01T02:18:18;5.60;;;5.10;;
1569;SDS011;778;50.120;8.698;2023-02-01T02:20:59;4.80;;;4.40;;
1569;SDS011;778;50.120;8.698;2023-02-01T02:23:51;6.37;;;5.83;;
1569;SDS011;778;50.120;8.698;2023-02-01T02:26:39;5.87;;;5.30;;
1569;SDS011;778;50.120;8.698;2023-02-01T02:32:42;6.63;;;5.93;;
1569;SDS011;778;50.120;8.698;2023-02-01T02:35:51;7.13;;;6.50;;
1569;SDS011;778;50.120;8.698;2023-02-01T02:38:29;7.63;;;6.87;;
1569;SDS011;778;50.120;8.698;2023-02-01T02:41:06;11.23;;;7.50;;
1569;SDS011;778;50.120;8.698;2023-02-01T02:44:00;9.03;;;7.67;;
1569;SDS011;778;50.120;8.698;2023-02-01T02:46:59;8.57;;;7.33;;
1569;SDS011;778;50.120;8.698;2023-02-01T02:49:56;9.20;;;8.30;;
1569;SDS011;778;50.120;8.698;2023-02-01T02:52:52;8.93;;;7.03;;
1569;SDS011;778;50.120;8.698;2023-02-01T02:55:46;7.33;;;6.60;;
1569;SDS011;778;50.120;8.698;2023-02-01T02:58:17;9.73;;;7.97;;
1569;SDS011;778;50.120;8.698;2023-02-01T03:01:06;7.03;;;6.23;;
1569;SDS011;778;50.120;8.698;2023-02-01T03:03:52;7.67;;;6.87;;
1569;SDS011;778;50.120;8.698;2023-02-01T03:06:39;9.57;;;7.33;;
1569;SDS011;778;50.120;8.698;2023-02-01T03:09:09;7.60;;;6.50;;
1569;SDS011;778;50.120;8.698;2023-02-01T03:11:43;6.63;;;6.00;;
1569;SDS011;778;50.120;8.698;2023-02-01T03:14:34;7.17;;;6.47;;
1569;SDS011;778;50.120;8.698;2023-02-01T03:17:05;9.20;;;7.00;;
1569;SDS011;778;50.120;8.698;2023-02-01T03:19:39;7.07;;;6.40;;
1569;SDS011;778;50.120;8.698;2023-02-01T03:22:16;7.00;;;6.07;;
1569;SDS011;778;50.120;8.698;2023-02-01T03:24:49;7.60;;;5.93;;
1569;SDS011;778;50.120;8.698;2023-02-01T03:27:23;7.27;;;5.20;;
1569;SDS011;778;50.120;8.698;2023-02-01T03:29:56;7.17;;;6.50;;
1569;SDS011;778;50.120;8.698;2023-02-01T03:32:32;6.67;;;5.80;;
1569;SDS011;778;50.120;8.698;2023-02-01T03:35:23;6.90;;;5.40;;
1569;SDS011;778;50.120;8.698;2023-02-01T03:38:01;9.23;;;5.20;;
1569;SDS011;778;50.120;8.698;2023-02-01T03:40:37;6.30;;;4.93;;
1569;SDS011;778;50.120;8.698;2023-02-01T03:43:07;6.50;;;5.47;;
1569;SDS011;778;50.120;8.698;2023-02-01T03:45:43;6.40;;;5.33;;
1569;SDS011;778;50.120;8.698;2023-02-01T03:48:16;11.87;;;5.93;;
1569;SDS011;778;50.120;8.698;2023-02-01T03:50:48;7.73;;;5.40;;
1569;SDS011;778;50.120;8.698;2023-02-01T03:53:22;6.23;;;5.13;;
1569;SDS011;778;50.120;8.698;2023-02-01T03:55:53;7.07;;;5.57;;
1569;SDS011;778;50.120;8.698;2023-02-01T03:58:23;8.63;;;4.83;;
1569;SDS011;778;50.120;8.698;2023-02-01T04:00:53;4.90;;;4.50;;
1569;SDS011;778;50.120;8.698;2023-02-01T04:03:23;5.23;;;4.73;;
1569;SDS011;778;50.120;8.698;2023-02-01T04:05:53;6.50;;;5.00;;
1569;SDS011;778;50.120;8.698;2023-02-01T04:08:27;4.97;;;4.40;;
1569;SDS011;778;50.120;8.698;2023-02-01T04:10:56;5.17;;;4.67;;
1569;SDS011;778;50.120;8.698;2023-02-01T04:13:25;4.90;;;4.50;;
1569;SDS011;778;50.120;8.698;2023-02-01T04:15:53;5.77;;;4.90;;
1569;SDS011;778;50.120;8.698;2023-02-01T04:18:21;8.40;;;4.77;;
1569;SDS011;778;50.120;8.698;2023-02-01T04:20:50;5.23;;;4.23;;
1569;SDS011;778;50.120;8.698;2023-02-01T04:23:18;5.57;;;4.90;;
1569;SDS011;778;50.120;8.698;2023-02-01T04:25:48;5.97;;;5.40;;
1569;SDS011;778;50.120;8.698;2023-02-01T04:28:18;6.67;;;5.40;;
1569;SDS011;778;50.120;8.698;2023-02-01T04:30:47;5.13;;;4.73;;
1569;SDS011;778;50.120;8.698;2023-02-01T04:33:15;5.83;;;5.20;;
1569;SDS011;778;50.120;8.698;2023-02-01T04:35:44;8.57;;;6.00;;
1569;SDS011;778;50.120;8.698;2023-02-01T04:38:12;7.17;;;5.30;;
1569;SDS011;778;50.120;8.698;2023-02-01T04:40:40;6.20;;;4.80;;
1569;SDS011;778;50.120;8.698;2023-02-01T04:43:10;5.73;;;5.13;;
1569;SDS011;778;50.120;8.698;2023-02-01T04:45:38;8.37;;;4.77;;
1569;SDS011;778;50.120;8.698;2023-02-01T04:48:07;6.20;;;5.63;;
1569;SDS011;778;50.120;8.698;2023-02-01T04:50:35;8.10;;;5.40;;
1569;SDS011;778;50.120;8.698;2023-02-01T04:53:04;7.70;;;5.00;;
1569;SDS011;778;50.120;8.698;2023-02-01T04:55:32;6.20;;;5.47;;
1569;SDS011;778;50.120;8.698;2023-02-01T04:58:01;7.40;;;5.17;;
1569;SDS011;778;50.120;8.698;2023-02-01T05:00:31;4.93;;;4.37;;
1569;SDS011;778;50.120;8.698;2023-02-01T05:02:59;6.57;;;5.13;;
1569;SDS011;778;50.120;8.698;2023-02-01T05:05:28;6.10;;;4.57;;
1569;SDS011;778;50.120;8.698;2023-02-01T05:07:57;8.17;;;5.17;;
1569;SDS011;778;50.120;8.698;2023-02-01T05:10:26;5.23;;;4.70;;
1569;SDS011;778;50.120;8.698;2023-02-01T05:12:54;6.47;;;5.77;;
1569;SDS011;778;50.120;8.698;2023-02-01T05:15:41;7.63;;;5.60;;
1569;SDS011;778;50.120;8.698;2023-02-01T05:18:10;7.30;;;4.80;;
1569;SDS011;778;50.120;8.698;2023-02-01T05:20:38;6.13;;;4.60;;
1569;SDS011;778;50.120;8.698;2023-02-01T05:23:07;6.83;;;4.93;;
1569;SDS011;778;50.120;8.698;2023-02-01T05:25:35;5.37;;;4.77;;
1569;SDS011;778;50.120;8.698;2023-02-01T05:28:03;8.23;;;5.30;;
1569;SDS011;778;50.120;8.698;2023-02-01T05:30:32;6.73;;;4.80;;
1569;SDS011;778;50.120;8.698;2023-02-01T05:33:03;6.90;;;4.33;;
1569;SDS011;778;50.120;8.698;2023-02-01T05:35:32;7.33;;;4.50;;
1569;SDS011;778;50.120;8.698;2023-02-01T05:38:00;10.80;;;6.07;;
1569;SDS011;778;50.120;8.698;2023-02-01T05:40:28;10.47;;;5.23;;
1569;SDS011;778;50.120;8.698;2023-02-01T05:42:57;7.43;;;4.47;;
1569;SDS011;778;50.120;8.698;2023-02-01T05:45:25;9.83;;;4.97;;
1569;SDS011;778;50.120;8.698;2023-02-01T05:47:54;8.03;;;5.27;;
1569;SDS011;778;50.120;8.698;2023-02-01T05:50:23;10.90;;;4.73;;
1569;SDS011;778;50.120;8.698;2023-02-01T05:52:56;6.70;;;4.50;;
1569;SDS011;778;50.120;8.698;2023-02-01T05:55:24;9.13;;;4.47;;
1569;SDS011;778;50.120;8.698;2023-02-01T05:57:52;5.80;;;3.90;;
1569;SDS011;778;50.120;8.698;2023-02-01T06:00:21;6.23;;;4.50;;
1569;SDS011;778;50.120;8.698;2023-02-01T06:02:51;5.83;;;3.70;;
1569;SDS011;778;50.120;8.698;2023-02-01T06:05:19;7.33;;;4.60;;
1569;SDS011;778;50.120;8.698;2023-02-01T06:07:49;11.30;;;4.10;;
1569;SDS011;778;50.120;8.698;2023-02-01T06:10:18;5.30;;;3.80;;
1569;SDS011;778;50.120;8.698;2023-02-01T06:12:47;10.17;;;4.30;;
1569;SDS011;778;50.120;8.698;2023-02-01T06:15:16;6.00;;;4.13;;
1569;SDS011;778;50.120;8.698;2023-02-01T06:17:45;6.60;;;3.90;;
1569;SDS011;778;50.120;8.698;2023-02-01T06:20:16;7.30;;;3.90;;
1569;SDS011;778;50.120;8.698;2023-02-01T06:22:45;8.40;;;3.97;;
1569;SDS011;778;50.120;8.698;2023-02-01T06:25:14;8.00;;;4.37;;
1569;SDS011;778;50.120;8.698;2023-02-01T06:27:44;3.97;;;3.13;;
1569;SDS011;778;50.120;8.698;2023-02-01T06:30:12;11.57;;;3.87;;
1569;SDS011;778;50.120;8.698;2023-02-01T06:32:43;8.00;;;4.20;;
1569;SDS011;778;50.120;8.698;2023-02-01T06:35:11;7.33;;;3.93;;
1569;SDS011;778;50.120;8.698;2023-02-01T06:37:42;8.80;;;3.60;;
1569;SDS011;778;50.120;8.698;2023-02-01T06:40:11;5.77;;;3.90;;
1569;SDS011;778;50.120;8.698;2023-02-01T06:42:41;9.10;;;4.33;;
1569;SDS011;778;50.120;8.698;2023-02-01T06:45:10;5.67;;;3.40;;
1569;SDS011;778;50.120;8.698;2023-02-01T06:47:38;6.50;;;3.60;;
1569;SDS011;778;50.120;8.698;2023-02-01T06:50:07;7.70;;;3.60;;
1569;SDS011;778;50.120;8.698;2023-02-01T06:52:37;8.40;;;3.60;;
1569;SDS011;778;50.120;8.698;2023-02-01T06:55:06;9.00;;;3.80;;
1569;SDS011;778;50.120;8.698;2023-02-01T06:57:35;10.40;;;4.13;;
1569;SDS011;778;50.120;8.698;2023-02-01T07:00:06;9.10;;;4.00;;
1569;SDS011;778;50.120;8.698;2023-02-01T07:02:35;9.77;;;4.17;;
1569;SDS011;778;50.120;8.698;2023-02-01T07:05:05;8.77;;;4.23;;
1569;SDS011;778;50.120;8.698;2023-02-01T07:07:34;9.23;;;4.30;;
1569;SDS011;778;50.120;8.698;2023-02-01T07:10:03;9.80;;;5.07;;
1569;SDS011;778;50.120;8.698;2023-02-01T07:12:32;6.70;;;4.30;;
1569;SDS011;778;50.120;8.698;2023-02-01T07:15:01;10.60;;;4.63;;
1569;SDS011;778;50.120;8.698;2023-02-01T07:17:31;11.53;;;4.03;;
1569;SDS011;778;50.120;8.698;2023-02-01T07:19:59;7.37;;;3.80;;
1569;SDS011;778;50.120;8.698;2023-02-01T07:22:28;7.37;;;3.80;;
1569;SDS011;778;50.120;8.698;2023-02-01T07:24:57;11.40;;;4.20;;
1569;SDS011;778;50.120;8.698;2023-02-01T07:27:25;7.93;;;4.33;;
1569;SDS011;778;50.120;8.698;2023-02-01T07:29:54;11.43;;;4.37;;
1569;SDS011;778;50.120;8.698;2023-02-01T07:32:23;12.40;;;4.17;;
1569;SDS011;778;50.120;8.698;2023-02-01T07:34:52;13.43;;;4.10;;
1569;SDS011;778;50.120;8.698;2023-02-01T07:37:21;8.50;;;4.80;;
1569;SDS011;778;50.120;8.698;2023-02-01T07:39:50;14.20;;;4.57;;
1569;SDS011;778;50.120;8.698;2023-02-01T07:42:19;7.73;;;3.50;;
1569;SDS011;778;50.120;8.698;2023-02-01T07:44:47;9.70;;;3.87;;
1569;SDS011;778;50.120;8.698;2023-02-01T07:47:16;7.07;;;3.20;;
1569;SDS011;778;50.120;8.698;2023-02-01T07:49:44;13.63;;;3.93;;
1569;SDS011;778;50.120;8.698;2023-02-01T07:52:14;7.33;;;3.53;;
1569;SDS011;778;50.120;8.698;2023-02-01T07:54:43;8.67;;;3.50;;
1569;SDS011;778;50.120;8.698;2023-02-01T07:57:11;9.53;;;3.87;;
1569;SDS011;778;50.120;8.698;2023-02-01T07:59:40;9.63;;;3.53;;
1569;SDS011;778;50.120;8.698;2023-02-01T08:02:37;10.63;;;3.40;;
1569;SDS011;778;50.120;8.698;2023-02-01T08:05:05;16.43;;;4.43;;
1569;SDS011;778;50.120;8.698;2023-02-01T08:07:36;8.00;;;4.13;;
1569;SDS011;778;50.120;8.698;2023-02-01T08:10:05;6.20;;;3.20;;
1569;SDS011;778;50.120;8.698;2023-02-01T08:12:37;10.30;;;3.67;;
1569;SDS011;778;50.120;8.698;2023-02-01T08:15:06;6.50;;;3.03;;
1569;SDS011;778;50.120;8.698;2023-02-01T08:17:35;8.30;;;2.33;;
1569;SDS011;778;50.120;8.698;2023-02-01T08:20:04;31.93;;;4.37;;
1569;SDS011;778;50.120;8.698;2023-02-01T08:22:34;6.53;;;3.70;;
1569;SDS011;778;50.120;8.698;2023-02-01T08:25:04;11.17;;;3.77;;
1569;SDS011;778;50.120;8.698;2023-02-01T08:27:34;8.83;;;3.03;;
1569;SDS011;778;50.120;8.698;2023-02-01T08:30:03;7.77;;;3.70;;
1569;SDS011;778;50.120;8.698;2023-02-01T08:32:34;12.43;;;3.73;;
1569;SDS011;778;50.120;8.698;2023-02-01T08:35:03;11.10;;;3.83;;
1569;SDS011;778;50.120;8.698;2023-02-01T08:37:32;13.20;;;3.93;;
1569;SDS011;778;50.120;8.698;2023-02-01T08:40:01;13.20;;;4.17;;
1569;SDS011;778;50.120;8.698;2023-02-01T08:42:31;6.13;;;3.80;;
1569;SDS011;778;50.120;8.698;2023-02-01T08:45:19;7.77;;;3.97;;
1569;SDS011;778;50.120;8.698;2023-02-01T08:47:50;16.10;;;4.33;;
1569;SDS011;778;50.120;8.698;2023-02-01T08:50:19;8.70;;;3.80;;
1569;SDS011;778;50.120;8.698;2023-02-01T08:52:49;7.50;;;3.17;;
1569;SDS011;778;50.120;8.698;2023-02-01T08:55:19;14.73;;;4.23;;
1569;SDS011;778;50.120;8.698;2023-02-01T08:57:48;5.53;;;2.90;;
1569;SDS011;778;50.120;8.698;2023-02-01T09:00:17;10.90;;;3.90;;
1569;SDS011;778;50.120;8.698;2023-02-01T09:02:46;9.70;;;3.07;;
1569;SDS011;778;50.120;8.698;2023-02-01T09:05:14;6.13;;;3.03;;
1569;SDS011;778;50.120;8.698;2023-02-01T09:07:45;8.90;;;2.83;;
1569;SDS011;778;50.120;8.698;2023-02-01T09:10:14;8.17;;;3.00;;
1569;SDS011;778;50.120;8.698;2023-02-01T09:12:56;11.50;;;2.87;;
1569;SDS011;778;50.120;8.698;2023-02-01T09:15:25;8.00;;;3.23;;
1569;SDS011;778;50.120;8.698;2023-02-01T09:17:53;10.13;;;3.30;;
1569;SDS011;778;50.120;8.698;2023-02-01T09:20:22;19.13;;;4.73;;
1569;SDS011;778;50.120;8.698;2023-02-01T09:22:51;6.60;;;3.50;;
1569;SDS011;778;50.120;8.698;2023-02-01T09:25:20;6.87;;;3.17;;
1569;SDS011;778;50.120;8.698;2023-02-01T09:27:49;11.27;;;3.30;;
1569;SDS011;778;50.120;8.698;2023-02-01T09:30:18;12.13;;;3.20;;
1569;SDS011;778;50.120;8.698;2023-02-01T09:32:47;6.00;;;3.00;;
1569;SDS011;778;50.120;8.698;2023-02-01T09:35:16;9.10;;;3.00;;
1569;SDS011;778;50.120;8.698;2023-02-01T09:37:44;8.70;;;3.67;;
1569;SDS011;778;50.120;8.698;2023-02-01T09:40:13;12.47;;;4.40;;
1569;SDS011;778;50.120;8.698;2023-02-01T09:42:46;7.77;;;3.10;;
1569;SDS011;778;50.120;8.698;2023-02-01T09:45:30;8.20;;;3.07;;
1569;SDS011;778;50.120;8.698;2023-02-01T09:48:08;6.23;;;2.60;;
1569;SDS011;778;50.120;8.698;2023-02-01T09:50:44;10.80;;;3.87;;
1569;SDS011;778;50.120;8.698;2023-02-01T09:53:18;8.93;;;3.30;;
1569;SDS011;778;50.120;8.698;2023-02-01T09:55:53;10.50;;;3.30;;
1569;SDS011;778;50.120;8.698;2023-02-01T09:58:27;8.73;;;3.50;;
1569;SDS011;778;50.120;8.698;2023-02-01T10:01:03;8.27;;;2.67;;
1569;SDS011;778;50.120;8.698;2023-02-01T10:03:39;10.93;;;3.87;;
1569;SDS011;778;50.120;8.698;2023-02-01T10:06:12;12.67;;;4.40;;
1569;SDS011;778;50.120;8.698;2023-02-01T10:09:04;9.43;;;3.07;;
1569;SDS011;778;50.120;8.698;2023-02-01T10:11:46;15.47;;;3.40;;
1569;SDS011;778;50.120;8.698;2023-02-01T10:14:37;13.27;;;5.00;;
1569;SDS011;778;50.120;8.698;2023-02-01T10:17:24;17.33;;;3.77;;
1569;SDS011;778;50.120;8.698;2023-02-01T10:20:12;6.93;;;3.53;;
1569;SDS011;778;50.120;8.698;2023-02-01T10:22:50;7.60;;;3.00;;
1569;SDS011;778;50.120;8.698;2023-02-01T10:25:51;8.57;;;2.70;;
1569;SDS011;778;50.120;8.698;2023-02-01T10:28:22;7.07;;;2.67;;
1569;SDS011;778;50.120;8.698;2023-02-01T10:30:53;8.70;;;2.80;;
1569;SDS011;778;50.120;8.698;2023-02-01T10:33:30;6.20;;;2.90;;
1569;SDS011;778;50.120;8.698;2023-02-01T10:36:03;5.47;;;3.27;;
1569;SDS011;778;50.120;8.698;2023-02-01T10:38:48;5.87;;;3.50;;
1569;SDS011;778;50.120;8.698;2023-02-01T10:41:17;12.10;;;2.63;;
1569;SDS011;778;50.120;8.698;2023-02-01T10:43:50;7.67;;;3.33;;
1569;SDS011;778;50.120;8.698;2023-02-01T10:46:22;8.60;;;2.50;;
1569;SDS011;778;50.120;8.698;2023-02-01T10:48:54;10.97;;;3.33;;
1569;SDS011;778;50.120;8.698;2023-02-01T10:51:26;9.40;;;3.07;;
1569;SDS011;778;50.120;8.698;2023-02-01T10:54:01;11.03;;;3.40;;
1569;SDS011;778;50.120;8.698;2023-02-01T10:56:39;10.57;;;3.63;;
1569;SDS011;778;50.120;8.698;2023-02-01T10:59:14;12.90;;;5.30;;
1569;SDS011;778;50.120;8.698;2023-02-01T11:01:46;10.43;;;2.77;;
1569;SDS011;778;50.120;8.698;2023-02-01T11:04:17;13.73;;;3.67;;
1569;SDS011;778;50.120;8.698;2023-02-01T11:06:48;13.57;;;3.00;;
1569;SDS011;778;50.120;8.698;2023-02-01T11:09:21;8.30;;;3.30;;
1569;SDS011;778;50.120;8.698;2023-02-01T11:11:53;12.83;;;3.00;;
1569;SDS011;778;50.120;8.698;2023-02-01T11:14:35;15.23;;;4.03;;
1569;SDS011;778;50.120;8.698;2023-02-01T11:17:17;7.47;;;2.70;;
1569;SDS011;778;50.120;8.698;2023-02-01T11:19:59;10.40;;;4.10;;
1569;SDS011;778;50.120;8.698;2023-02-01T11:22:30;8.63;;;2.80;;
1569;SDS011;778;50.120;8.698;2023-02-01T11:24:59;9.10;;;3.20;;
1569;SDS011;778;50.120;8.698;2023-02-01T11:27:36;10.47;;;3.20;;
1569;SDS011;778;50.120;8.698;2023-02-01T11:30:22;8.10;;;2.70;;
1569;SDS011;778;50.120;8.698;2023-02-01T11:33:00;10.23;;;3.33;;
1569;SDS011;778;50.120;8.698;2023-02-01T11:35:33;12.63;;;3.57;;
1569;SDS011;778;50.120;8.698;2023-02-01T11:38:11;8.93;;;3.67;;
1569;SDS011;778;50.120;8.698;2023-02-01T11:40:49;8.47;;;2.40;;
1569;SDS011;778;50.120;8.698;2023-02-01T11:43:19;7.00;;;3.10;;
1569;SDS011;778;50.120;8.698;2023-02-01T11:45:56;11.10;;;3.90;;
1569;SDS011;778;50.120;8.698;2023-02-01T11:48:27;10.17;;;3.47;;
1569;SDS011;778;50.120;8.698;2023-02-01T11:51:12;12.27;;;3.00;;
1569;SDS011;778;50.120;8.698;2023-02-01T11:53:58;10.93;;;3.83;;
1569;SDS011;778;50.120;8.698;2023-02-01T11:56:45;12.17;;;3.10;;
1569;SDS011;778;50.120;8.698;2023-02-01T11:59:30;8.77;;;3.50;;
1569;SDS011;778;50.120;8.698;2023-02-01T12:02:31;12.07;;;4.33;;
1569;SDS011;778;50.120;8.698;2023-02-01T12:05:28;13.60;;;4.10;;
1569;SDS011;778;50.120;8.698;2023-02-01T12:08:09;8.40;;;2.40;;
1569;SDS011;778;50.120;8.698;2023-02-01T12:11:03;10.57;;;3.43;;
1569;SDS011;778;50.120;8.698;2023-02-01T12:14:01;8.23;;;2.67;;
1569;SDS011;778;50.120;8.698;2023-02-01T12:16:47;9.77;;;3.20;;
1569;SDS011;778;50.120;8.698;2023-02-01T12:19:32;8.17;;;3.10;;
1569;SDS011;778;50.120;8.698;2023-02-01T12:22:19;10.23;;;2.67;;
1569;SDS011;778;50.120;8.698;2023-02-01T12:25:18;11.63;;;3.27;;
1569;SDS011;778;50.120;8.698;2023-02-01T12:28:01;16.00;;;3.47;;
1569;SDS011;778;50.120;8.698;2023-02-01T12:31:12;11.43;;;3.57;;
1569;SDS011;778;50.120;8.698;2023-02-01T12:34:04;6.80;;;2.63;;
1569;SDS011;778;50.120;8.698;2023-02-01T12:36:48;9.10;;;2.83;;
1569;SDS011;778;50.120;8.698;2023-02-01T12:39:23;14.30;;;3.77;;
1569;SDS011;778;50.120;8.698;2023-02-01T12:42:00;15.47;;;3.60;;
1569;SDS011;778;50.120;8.698;2023-02-01T12:44:40;8.73;;;2.50;;
1569;SDS011;778;50.120;8.698;2023-02-01T12:47:16;12.43;;;3.30;;
1569;SDS011;778;50.120;8.698;2023-02-01T12:49:53;7.07;;;2.27;;
1569;SDS011;778;50.120;8.698;2023-02-01T12:52:29;5.80;;;3.30;;
1569;SDS011;778;50.120;8.698;2023-02-01T12:55:07;9.73;;;2.97;;
1569;SDS011;778;50.120;8.698;2023-02-01T12:57:47;12.93;;;3.47;;
1569;SDS011;778;50.120;8.698;2023-02-01T13:00:23;7.30;;;2.97;;
1569;SDS011;778;50.120;8.698;2023-02-01T13:03:00;11.73;;;3.20;;
1569;SDS011;778;50.120;8.698;2023-02-01T13:05:42;9.17;;;2.70;;
1569;SDS011;778;50.120;8.698;2023-02-01T13:08:24;9.83;;;3.90;;
1569;SDS011;778;50.120;8.698;2023-02-01T13:11:03;7.50;;;3.20;;
1569;SDS011;778;50.120;8.698;2023-02-01T13:13:44;7.87;;;2.53;;
1569;SDS011;778;50.120;8.698;2023-02-01T13:16:23;8.33;;;2.70;;
1569;SDS011;778;50.120;8.698;2023-02-01T13:18:57;8.00;;;2.40;;
1569;SDS011;778;50.120;8.698;2023-02-01T13:21:35;9.80;;;3.70;;
1569;SDS011;778;50.120;8.698;2023-02-01T13:24:18;9.97;;;2.43;;
1569;SDS011;778;50.120;8.698;2023-02-01T13:26:57;13.23;;;2.43;;
1569;SDS011;778;50.120;8.698;2023-02-01T13:29:29;9.03;;;3.67;;
1569;SDS011;778;50.120;8.698;2023-02-01T13:32:04;12.40;;;3.97;;
1569;SDS011;778;50.120;8.698;2023-02-01T13:35:38;10.17;;;3.67;;
1569;SDS011;778;50.120;8.698;2023-02-01T13:38:39;13.97;;;3.80;;
1569;SDS011;778;50.120;8.698;2023-02-01T13:42:11;12.63;;;2.83;;
1569;SDS011;778;50.120;8.698;2023-02-01T13:44:47;9.67;;;2.70;;
1569;SDS011;778;50.120;8.698;2023-02-01T13:47:24;9.13;;;2.50;;
1569;SDS011;778;50.120;8.698;2023-02-01T13:49:56;7.33;;;2.50;;
1569;SDS011;778;50.120;8.698;2023-02-01T13:52:28;6.27;;;3.20;;
1569;SDS011;778;50.120;8.698;2023-02-01T13:55:16;7.80;;;3.07;;
1569;SDS011;778;50.120;8.698;2023-02-01T14:00:48;9.43;;;2.80;;
1569;SDS011;778;50.120;8.698;2023-02-01T14:03:19;10.87;;;3.50;;
1569;SDS011;778;50.120;8.698;2023-02-01T14:05:57;10.70;;;3.33;;
1569;SDS011;778;50.120;8.698;2023-02-01T14:08:46;7.63;;;2.83;;
1569;SDS011;778;50.120;8.698;2023-02-01T14:11:44;8.07;;;3.53;;
1569;SDS011;778;50.120;8.698;2023-02-01T14:23:29;9.70;;;3.50;;
1569;SDS011;778;50.120;8.698;2023-02-01T14:26:02;6.57;;;2.90;;
1569;SDS011;778;50.120;8.698;2023-02-01T14:28:47;15.23;;;3.63;;
1569;SDS011;778;50.120;8.698;2023-02-01T14:31:37;6.57;;;2.37;;
1569;SDS011;778;50.120;8.698;2023-02-01T14:37:24;6.80;;;3.00;;
1569;SDS011;778;50.120;8.698;2023-02-01T14:39:57;8.97;;;2.67;;
1569;SDS011;778;50.120;8.698;2023-02-01T14:42:30;7.07;;;3.30;;
1569;SDS011;778;50.120;8.698;2023-02-01T14:51:15;6.50;;;2.70;;
1569;SDS011;778;50.120;8.698;2023-02-01T14:53:46;11.97;;;2.90;;
1569;SDS011;778;50.120;8.698;2023-02-01T14:56:17;8.47;;;2.63;;
1569;SDS011;778;50.120;8.698;2023-02-01T14:58:49;16.43;;;3.90;;
1569;SDS011;778;50.120;8.698;2023-02-01T15:01:25;11.80;;;2.97;;
1569;SDS011;778;50.120;8.698;2023-02-01T15:03:58;9.07;;;2.50;;
1569;SDS011;778;50.120;8.698;2023-02-01T15:06:36;8.23;;;2.10;;
1569;SDS011;778;50.120;8.698;2023-02-01T15:09:08;11.17;;;2.97;;
1569;SDS011;778;50.120;8.698;2023-02-01T15:12:00;9.40;;;3.03;;
1569;SDS011;778;50.120;8.698;2023-02-01T15:14:32;9.70;;;2.80;;
1569;SDS011;778;50.120;8.698;2023-02-01T15:17:15;10.87;;;3.00;;
1569;SDS011;778;50.120;8.698;2023-02-01T15:19:53;3.93;;;2.00;;
1569;SDS011;778;50.120;8.698;2023-02-01T15:22:25;6.80;;;3.00;;
1569;SDS011;778;50.120;8.698;2023-02-01T15:24:56;7.40;;;2.70;;
1569;SDS011;778;50.120;8.698;2023-02-01T15:27:26;12.20;;;3.20;;
1569;SDS011;778;50.120;8.698;2023-02-01T15:30:04;6.13;;;2.10;;
1569;SDS011;778;50.120;8.698;2023-02-01T15:32:34;9.97;;;2.67;;
1569;SDS011;778;50.120;8.698;2023-02-01T15:35:06;7.50;;;3.03;;
1569;SDS011;778;50.120;8.698;2023-02-01T15:41:04;12.33;;;3.10;;
1569;SDS011;778;50.120;8.698;2023-02-01T15:43:36;8.00;;;2.43;;
1569;SDS011;778;50.120;8.698;2023-02-01T15:46:08;11.17;;;3.27;;
1569;SDS011;778;50.120;8.698;2023-02-01T15:48:44;9.37;;;3.03;;
1569;SDS011;778;50.120;8.698;2023-02-01T15:51:19;6.47;;;2.83;;
1569;SDS011;778;50.120;8.698;2023-02-01T15:53:51;5.90;;;1.90;;
1569;SDS011;778;50.120;8.698;2023-02-01T15:56:23;7.17;;;3.17;;
1569;SDS011;778;50.120;8.698;2023-02-01T15:58:56;6.90;;;2.70;;
1569;SDS011;778;50.120;8.698;2023-02-01T16:01:26;8.50;;;2.67;;
1569;SDS011;778;50.120;8.698;2023-02-01T16:04:03;7.63;;;3.00;;
1569;SDS011;778;50.120;8.698;2023-02-01T16:06:49;8.53;;;2.50;;
1569;SDS011;778;50.120;8.698;2023-02-01T16:09:19;8.33;;;2.53;;
1569;SDS011;778;50.120;8.698;2023-02-01T16:11:55;7.63;;;2.47;;
1569;SDS011;778;50.120;8.698;2023-02-01T16:14:26;9.53;;;1.77;;
1569;SDS011;778;50.120;8.698;2023-02-01T16:16:56;5.97;;;2.30;;
1569;SDS011;778;50.120;8.698;2023-02-01T16:19:26;6.43;;;2.27;;
1569;SDS011;778;50.120;8.698;2023-02-01T16:21:56;7.07;;;2.50;;
1569;SDS011;778;50.120;8.698;2023-02-01T16:24:25;7.20;;;2.00;;
1569;SDS011;778;50.120;8.698;2023-02-01T16:26:54;8.27;;;2.40;;
1569;SDS011;778;50.120;8.698;2023-02-01T16:29:22;7.53;;;2.30;;
1569;SDS011;778;50.120;8.698;2023-02-01T16:31:51;10.13;;;2.90;;
1569;SDS011;778;50.120;8.698;2023-02-01T16:34:20;11.07;;;3.57;;
1569;SDS011;778;50.120;8.698;2023-02-01T16:36:48;5.97;;;1.90;;
1569;SDS011;778;50.120;8.698;2023-02-01T16:39:21;5.53;;;2.20;;
1569;SDS011;778;50.120;8.698;2023-02-01T16:41:49;7.23;;;2.10;;
1569;SDS011;778;50.120;8.698;2023-02-01T16:44:18;10.33;;;3.13;;